createdAt,value
2018-07-22T00:01:32.102Z,17.39
2018-07-22T00:04:00.903Z,17.38
2018-07-22T00:06:29.701Z,17.38
2018-07-22T00:08:58.517Z,17.36
2018-07-22T00:11:27.359Z,17.37
2018-07-22T00:13:56.812Z,17.37
2018-07-22T00:16:26.253Z,17.34
2018-07-22T00:18:55.356Z,17.31
2018-07-22T00:21:24.309Z,17.29
2018-07-22T00:23:53.090Z,17.27
2018-07-22T00:26:21.912Z,17.25
2018-07-22T00:28:51.283Z,17.22
2018-07-22T00:31:20.183Z,17.21
2018-07-22T00:33:49.800Z,17.19
2018-07-22T00:36:19.192Z,17.17
2018-07-22T00:38:48.100Z,17.16
2018-07-22T00:41:16.804Z,17.17
2018-07-22T00:43:45.684Z,17.19
2018-07-22T00:46:14.512Z,17.15
2018-07-22T00:48:43.337Z,17.16
2018-07-22T00:51:12.329Z,17.16
2018-07-22T00:53:41.243Z,17.15
2018-07-22T00:56:09.979Z,17.13
2018-07-22T00:58:38.813Z,17.13
2018-07-22T01:01:08.538Z,17.15
2018-07-22T01:03:37.445Z,17.13
2018-07-22T01:06:06.402Z,17.14
2018-07-22T01:08:35.177Z,17.14
2018-07-22T01:11:04.129Z,17.15
2018-07-22T01:13:33.689Z,17.15
2018-07-22T01:16:02.313Z,17.17
2018-07-22T01:18:31.232Z,17.16
2018-07-22T01:21:00.067Z,17.15
2018-07-22T01:23:29.384Z,17.15
2018-07-22T01:25:58.123Z,17.17
2018-07-22T01:28:26.809Z,17.14
2018-07-22T01:30:55.654Z,17.16
2018-07-22T01:33:24.483Z,17.13
2018-07-22T01:35:53.532Z,17.15
2018-07-22T01:38:22.353Z,17.16
2018-07-22T01:40:51.062Z,17.17
2018-07-22T01:43:20.592Z,17.17
2018-07-22T01:45:49.398Z,17.17
2018-07-22T01:48:18.867Z,17.17
2018-07-22T01:50:47.552Z,17.19
2018-07-22T01:53:16.443Z,17.17
2018-07-22T01:55:45.294Z,17.15
2018-07-22T01:58:14.597Z,17.13
2018-07-22T02:00:43.473Z,17.12
2018-07-22T02:03:13.344Z,17.11
2018-07-22T02:05:42.293Z,17.08
2018-07-22T02:08:11.643Z,17.08
2018-07-22T02:10:40.643Z,17.08
2018-07-22T02:13:09.519Z,17.03
2018-07-22T02:15:38.782Z,16.99
2018-07-22T02:18:07.418Z,16.96
2018-07-22T02:20:36.242Z,16.93
2018-07-22T02:23:05.660Z,16.89
2018-07-22T02:25:35.346Z,16.91
2018-07-22T02:28:04.136Z,16.93
2018-07-22T02:30:32.739Z,16.95
2018-07-22T02:33:01.594Z,16.95
2018-07-22T02:35:30.833Z,16.95
2018-07-22T02:37:59.763Z,16.93
2018-07-22T02:40:28.495Z,16.92
2018-07-22T02:42:58.625Z,16.94
2018-07-22T02:45:27.981Z,16.88
2018-07-22T02:47:56.697Z,16.87
2018-07-22T02:50:27.172Z,16.85
2018-07-22T02:52:56.058Z,16.85
2018-07-22T02:55:25.649Z,16.81
2018-07-22T02:57:54.988Z,16.82
2018-07-22T03:00:23.677Z,16.82
2018-07-22T03:02:52.388Z,16.83
2018-07-22T03:05:21.495Z,16.85
2018-07-22T03:07:50.188Z,16.85
2018-07-22T03:10:19.149Z,16.86
2018-07-22T03:12:48.160Z,16.87
2018-07-22T03:15:17.253Z,16.85
2018-07-22T03:17:45.812Z,16.85
2018-07-22T03:20:14.870Z,16.87
2018-07-22T03:22:43.820Z,16.83
2018-07-22T03:25:13.502Z,16.83
2018-07-22T03:27:42.849Z,16.81
2018-07-22T03:30:11.612Z,16.83
2018-07-22T03:32:40.454Z,16.85
2018-07-22T03:35:09.373Z,16.87
2018-07-22T03:37:37.903Z,16.88
2018-07-22T03:40:06.839Z,16.90
2018-07-22T03:42:36.974Z,16.91
2018-07-22T03:45:05.914Z,16.92
2018-07-22T03:47:34.665Z,16.92
2018-07-22T03:50:03.715Z,16.93
2018-07-22T03:52:32.590Z,16.94
2018-07-22T03:55:02.132Z,16.95
2018-07-22T03:57:31.004Z,16.96
2018-07-22T03:59:59.628Z,16.97
2018-07-22T04:02:28.497Z,16.98
2018-07-22T04:04:57.344Z,17.00
2018-07-22T04:07:26.239Z,17.00
2018-07-22T04:09:54.927Z,17.02
2018-07-22T04:12:23.643Z,17.01
2018-07-22T04:14:52.609Z,17.04
2018-07-22T04:17:21.234Z,17.07
2018-07-22T04:19:50.148Z,17.10
2018-07-22T04:22:18.879Z,17.11
2018-07-22T04:24:47.504Z,17.16
2018-07-22T04:27:16.130Z,17.19
2018-07-22T04:29:44.884Z,17.21
2018-07-22T04:32:13.519Z,17.12
2018-07-22T04:34:42.245Z,17.14
2018-07-22T04:37:11.065Z,17.15
2018-07-22T04:39:40.218Z,17.18
2018-07-22T04:42:09.108Z,17.22
2018-07-22T04:44:37.750Z,17.24
2018-07-22T04:47:06.658Z,17.26
2018-07-22T04:49:36.265Z,17.28
2018-07-22T04:52:05.068Z,17.29
2018-07-22T04:54:35.723Z,17.32
2018-07-22T04:57:04.823Z,17.34
2018-07-22T04:59:34.150Z,17.37
2018-07-22T05:02:03.695Z,17.39
2018-07-22T05:04:32.488Z,17.40
2018-07-22T05:07:01.425Z,17.41
2018-07-22T05:09:30.113Z,17.42
2018-07-22T05:11:59.332Z,17.47
2018-07-22T05:14:28.130Z,17.55
2018-07-22T05:16:56.832Z,17.64
2018-07-22T05:19:25.540Z,17.79
2018-07-22T05:21:55.165Z,18.00
2018-07-22T05:24:24.361Z,18.21
2018-07-22T05:26:53.334Z,18.33
2018-07-22T05:29:22.008Z,18.46
2018-07-22T05:31:51.020Z,18.55
2018-07-22T05:34:19.937Z,18.57
2018-07-22T05:36:48.547Z,18.63
2018-07-22T05:39:17.871Z,18.59
2018-07-22T05:41:47.080Z,18.58
2018-07-22T05:44:15.878Z,18.62
2018-07-22T05:46:44.529Z,18.71
2018-07-22T05:49:13.279Z,18.87
2018-07-22T05:51:41.880Z,19.01
2018-07-22T05:54:10.561Z,19.07
2018-07-22T05:56:39.278Z,19.09
2018-07-22T05:59:08.499Z,19.10
2018-07-22T06:01:37.166Z,19.08
2018-07-22T06:04:06.041Z,19.12
2018-07-22T06:06:35.108Z,19.16
2018-07-22T06:09:04.671Z,19.13
2018-07-22T06:11:33.668Z,19.06
2018-07-22T06:14:02.348Z,19.07
2018-07-22T06:16:31.263Z,19.03
2018-07-22T06:19:00.103Z,19.00
2018-07-22T06:21:28.915Z,19.01
2018-07-22T06:23:58.061Z,19.05
2018-07-22T06:26:26.635Z,19.12
2018-07-22T06:28:55.305Z,19.24
2018-07-22T06:31:24.088Z,19.43
2018-07-22T06:33:52.844Z,19.55
2018-07-22T06:36:21.795Z,19.82
2018-07-22T06:38:50.640Z,20.12
2018-07-22T06:41:19.521Z,20.31
2018-07-22T06:43:48.401Z,20.46
2018-07-22T06:46:17.974Z,21.07
2018-07-22T06:48:47.101Z,21.46
2018-07-22T06:51:15.988Z,21.54
2018-07-22T06:53:44.722Z,21.47
2018-07-22T06:56:13.798Z,21.63
2018-07-22T06:58:42.801Z,22.21
2018-07-22T07:01:12.253Z,22.93
2018-07-22T07:03:41.653Z,23.05
2018-07-22T07:06:10.651Z,23.64
2018-07-22T07:08:40.316Z,24.70
2018-07-22T07:11:09.055Z,25.99
2018-07-22T07:13:37.776Z,25.82
2018-07-22T07:16:06.726Z,26.19
2018-07-22T07:18:35.549Z,26.39
2018-07-22T07:21:05.121Z,25.51
2018-07-22T07:23:34.049Z,25.29
2018-07-22T07:26:02.778Z,26.12
2018-07-22T07:28:31.502Z,26.55
2018-07-22T07:31:00.980Z,26.47
2018-07-22T07:33:29.831Z,26.72
2018-07-22T07:35:58.574Z,26.41
2018-07-22T07:38:27.220Z,26.51
2018-07-22T07:40:55.906Z,26.98
2018-07-22T07:43:24.773Z,26.59
2018-07-22T07:45:53.444Z,26.01
2018-07-22T07:48:22.696Z,26.21
2018-07-22T07:50:52.194Z,27.79
2018-07-22T07:53:20.990Z,28.91
2018-07-22T07:55:49.695Z,29.45
2018-07-22T07:58:18.384Z,30.67
2018-07-22T08:00:47.064Z,30.71
2018-07-22T08:03:15.746Z,29.25
2018-07-22T08:05:44.981Z,28.89
2018-07-22T08:08:13.647Z,29.18
2018-07-22T08:10:42.215Z,30.27
2018-07-22T08:13:10.986Z,31.52
2018-07-22T08:15:40.184Z,31.61
2018-07-22T08:18:09.130Z,30.24
2018-07-22T08:20:38.646Z,28.34
2018-07-22T08:23:07.941Z,27.95
2018-07-22T08:25:36.632Z,27.23
2018-07-22T08:28:05.250Z,26.99
2018-07-22T08:30:34.014Z,26.49
2018-07-22T08:33:02.806Z,25.61
2018-07-22T08:35:31.432Z,25.12
2018-07-22T08:38:00.337Z,24.37
2018-07-22T08:40:29.211Z,24.15
2018-07-22T08:42:58.003Z,23.99
2018-07-22T08:45:26.905Z,23.44
2018-07-22T08:47:55.607Z,23.15
2018-07-22T08:50:24.411Z,23.11
2018-07-22T08:52:53.192Z,22.79
2018-07-22T08:55:21.857Z,22.65
2018-07-22T08:57:51.157Z,22.30
2018-07-22T09:00:27.285Z,22.53
2018-07-22T09:02:56.238Z,22.53
2018-07-22T09:05:25.410Z,22.73
2018-07-22T09:07:54.081Z,22.57
2018-07-22T09:10:22.735Z,22.52
2018-07-22T09:12:51.462Z,22.64
2018-07-22T09:15:20.167Z,22.69
2018-07-22T09:17:48.932Z,22.58
2018-07-22T09:20:18.082Z,22.40
2018-07-22T09:22:47.337Z,22.43
2018-07-22T09:25:16.120Z,22.55
2018-07-22T09:27:45.482Z,22.58
2018-07-22T09:30:14.992Z,22.56
2018-07-22T09:32:43.868Z,22.62
2018-07-22T09:35:12.573Z,22.90
2018-07-22T09:37:41.436Z,23.17
2018-07-22T09:40:10.254Z,23.61
2018-07-22T09:42:39.079Z,24.03
2018-07-22T09:45:08.402Z,24.47
2018-07-22T09:47:37.131Z,25.02
2018-07-22T09:50:05.860Z,25.73
2018-07-22T09:52:34.457Z,27.28
2018-07-22T09:55:03.230Z,28.03
2018-07-22T09:57:32.558Z,28.38
2018-07-22T10:00:01.436Z,27.36
2018-07-22T10:02:30.043Z,26.70
2018-07-22T10:04:59.077Z,25.94
2018-07-22T10:07:27.755Z,25.58
2018-07-22T10:09:56.541Z,25.09
2018-07-22T10:12:25.220Z,24.72
2018-07-22T10:14:54.058Z,24.38
2018-07-22T10:17:22.731Z,24.17
2018-07-22T10:19:51.431Z,24.04
2018-07-22T10:22:20.135Z,24.05
2018-07-22T10:24:48.960Z,24.09
2018-07-22T10:27:18.346Z,24.35
2018-07-22T10:29:47.373Z,24.55
2018-07-22T10:32:16.722Z,24.45
2018-07-22T10:34:45.637Z,24.48
2018-07-22T10:37:14.244Z,24.27
2018-07-22T10:39:43.447Z,23.90
2018-07-22T10:42:12.107Z,23.59
2018-07-22T10:44:40.807Z,23.56
2018-07-22T10:47:10.278Z,23.54
2018-07-22T10:49:39.006Z,23.37
2018-07-22T10:52:07.737Z,23.06
2018-07-22T10:54:37.068Z,22.70
2018-07-22T10:57:06.110Z,22.60
2018-07-22T10:59:34.901Z,22.62
2018-07-22T11:02:03.511Z,22.63
2018-07-22T11:04:32.891Z,22.73
2018-07-22T11:07:01.975Z,22.86
2018-07-22T11:09:30.727Z,23.04
2018-07-22T11:11:59.737Z,23.38
2018-07-22T11:14:28.872Z,23.62
2018-07-22T11:16:57.925Z,24.02
2018-07-22T11:19:26.640Z,23.99
2018-07-22T11:21:55.297Z,23.75
2018-07-22T11:24:24.199Z,24.35
2018-07-22T11:26:53.845Z,25.00
2018-07-22T11:29:22.960Z,24.83
2018-07-22T11:31:52.001Z,24.78
2018-07-22T11:34:21.219Z,24.56
2018-07-22T11:36:50.201Z,24.64
2018-07-22T11:39:20.031Z,24.52
2018-07-22T11:41:49.181Z,24.42
2018-07-22T11:44:18.262Z,24.29
2018-07-22T11:46:48.094Z,24.06
2018-07-22T11:49:19.026Z,24.10
2018-07-22T11:51:48.027Z,24.05
2018-07-22T11:54:17.155Z,24.02
2018-07-22T11:56:47.888Z,23.94
2018-07-22T11:59:17.826Z,23.95
2018-07-22T12:01:46.739Z,24.01
2018-07-22T12:04:15.552Z,24.06
2018-07-22T12:06:45.090Z,24.03
2018-07-22T12:09:14.022Z,24.12
2018-07-22T12:11:42.852Z,24.20
2018-07-22T12:14:12.037Z,24.32
2018-07-22T12:16:41.182Z,24.32
2018-07-22T12:19:09.985Z,24.35
2018-07-22T12:21:38.630Z,24.18
2018-07-22T12:24:07.562Z,23.89
2018-07-22T12:26:37.585Z,23.72
2018-07-22T12:29:07.248Z,23.67
2018-07-22T12:31:36.230Z,23.52
2018-07-22T12:34:05.217Z,23.53
2018-07-22T12:36:35.165Z,23.49
2018-07-22T12:39:06.182Z,23.44
2018-07-22T12:41:35.401Z,23.44
2018-07-22T12:44:04.550Z,23.52
2018-07-22T12:46:33.891Z,23.40
2018-07-22T12:49:02.986Z,23.14
2018-07-22T12:51:32.056Z,23.11
2018-07-22T12:54:00.835Z,23.08
2018-07-22T12:56:29.722Z,23.11
2018-07-22T12:58:58.776Z,23.26
2018-07-22T13:01:27.931Z,23.60
2018-07-22T13:03:56.830Z,24.02
2018-07-22T13:06:26.057Z,24.46
2018-07-22T13:08:55.331Z,24.84
2018-07-22T13:11:23.991Z,25.05
2018-07-22T13:13:53.197Z,24.67
2018-07-22T13:16:22.493Z,24.73
2018-07-22T13:18:51.722Z,24.96
2018-07-22T13:21:20.903Z,25.12
2018-07-22T13:23:50.001Z,25.02
2018-07-22T13:26:19.780Z,25.24
2018-07-22T13:28:48.556Z,25.14
2018-07-22T13:31:17.798Z,25.29
2018-07-22T13:33:46.485Z,25.20
2018-07-22T13:36:15.353Z,24.92
2018-07-22T13:38:44.368Z,24.57
2018-07-22T13:41:13.482Z,24.20
2018-07-22T13:43:42.428Z,23.97
2018-07-22T13:46:12.477Z,23.83
2018-07-22T13:48:41.457Z,23.75
2018-07-22T13:51:10.493Z,23.59
2018-07-22T13:53:40.781Z,23.56
2018-07-22T13:56:09.596Z,23.50
2018-07-22T13:58:38.419Z,23.55
2018-07-22T14:01:07.585Z,23.61
2018-07-22T14:03:36.471Z,23.69
2018-07-22T14:06:05.448Z,23.52
2018-07-22T14:08:35.045Z,23.37
2018-07-22T14:11:04.246Z,23.17
2018-07-22T14:13:33.143Z,23.00
2018-07-22T14:16:03.001Z,22.85
2018-07-22T14:18:31.901Z,22.65
2018-07-22T14:21:01.166Z,22.56
2018-07-22T14:23:30.441Z,22.43
2018-07-22T14:25:59.433Z,22.38
2018-07-22T14:28:28.230Z,22.31
2018-07-22T14:30:57.150Z,22.27
2018-07-22T14:33:26.346Z,22.11
2018-07-22T14:35:55.140Z,21.87
2018-07-22T14:38:24.863Z,21.74
2018-07-22T14:40:54.132Z,21.68
2018-07-22T14:43:23.259Z,21.61
2018-07-22T14:45:53.219Z,21.55
2018-07-22T14:48:22.774Z,21.56
2018-07-22T14:50:51.896Z,21.45
2018-07-22T14:55:50.496Z,21.04
2018-07-22T14:58:19.548Z,21.08
2018-07-22T15:00:48.818Z,21.01
2018-07-22T15:03:17.986Z,21.07
2018-07-22T15:05:47.176Z,21.04
2018-07-22T15:08:16.923Z,20.83
2018-07-22T15:10:45.756Z,20.66
2018-07-22T15:13:14.906Z,20.49
2018-07-22T15:15:44.170Z,20.50
2018-07-22T15:18:13.097Z,20.56
2018-07-22T15:20:42.505Z,20.78
2018-07-22T15:23:11.360Z,20.76
2018-07-22T15:25:40.188Z,20.76
2018-07-22T15:28:08.847Z,20.91
2018-07-22T15:30:37.622Z,20.88
2018-07-22T15:33:06.709Z,20.99
2018-07-22T15:35:35.606Z,21.07
2018-07-22T15:38:04.466Z,21.15
2018-07-22T15:40:33.386Z,21.24
2018-07-22T15:43:02.112Z,21.07
2018-07-22T15:45:30.993Z,20.90
2018-07-22T15:48:00.935Z,20.79
2018-07-22T15:50:30.057Z,20.81
2018-07-22T15:52:59.150Z,20.83
2018-07-22T15:55:28.116Z,20.95
2018-07-22T15:57:57.047Z,21.10
2018-07-22T16:00:27.768Z,21.13
2018-07-22T16:02:57.177Z,21.01
2018-07-22T16:05:25.923Z,20.98
2018-07-22T16:07:54.763Z,20.98
2018-07-22T16:10:23.988Z,20.77
2018-07-22T16:12:53.098Z,20.83
2018-07-22T16:15:23.462Z,20.70
2018-07-22T16:17:52.717Z,20.72
2018-07-22T16:20:21.555Z,20.71
2018-07-22T16:22:51.272Z,20.69
2018-07-22T16:25:20.276Z,20.55
2018-07-22T16:27:49.441Z,20.69
2018-07-22T16:30:18.865Z,20.65
2018-07-22T16:32:47.857Z,20.47
2018-07-22T16:35:16.620Z,20.31
2018-07-22T16:37:45.556Z,20.38
2018-07-22T16:40:14.394Z,20.35
2018-07-22T16:42:43.210Z,20.35
2018-07-22T16:45:12.289Z,20.23
2018-07-22T16:47:41.062Z,20.25
2018-07-22T16:50:09.777Z,20.23
2018-07-22T16:52:38.816Z,20.19
2018-07-22T16:55:08.059Z,20.21
2018-07-22T16:57:37.369Z,20.28
2018-07-22T17:00:06.647Z,20.28
2018-07-22T17:02:35.841Z,20.32
2018-07-22T17:05:04.916Z,20.37
2018-07-22T17:07:34.528Z,20.40
2018-07-22T17:10:03.421Z,20.37
2018-07-22T17:12:32.622Z,20.39
2018-07-22T17:15:02.052Z,20.41
2018-07-22T17:17:30.730Z,20.28
2018-07-22T17:19:59.612Z,20.17
2018-07-22T17:22:28.420Z,20.13
2018-07-22T17:24:57.936Z,20.12
2018-07-22T17:27:26.983Z,20.12
2018-07-22T17:29:56.445Z,20.07
2018-07-22T17:32:26.507Z,20.05
2018-07-22T17:34:55.221Z,19.92
2018-07-22T17:37:24.191Z,19.95
2018-07-22T17:39:53.182Z,19.77
2018-07-22T17:42:22.232Z,19.66
2018-07-22T17:44:51.178Z,19.58
2018-07-22T17:47:20.756Z,19.60
2018-07-22T17:49:49.687Z,19.53
2018-07-22T17:52:18.447Z,19.50
2018-07-22T17:54:47.344Z,19.50
2018-07-22T17:57:16.213Z,19.46
2018-07-22T17:59:44.924Z,19.52
2018-07-22T18:02:13.823Z,19.50
2018-07-22T18:04:42.735Z,19.41
2018-07-22T18:07:11.603Z,19.37
2018-07-22T18:09:40.548Z,19.32
2018-07-22T18:12:09.320Z,19.36
2018-07-22T18:14:38.167Z,19.42
2018-07-22T18:17:07.490Z,19.41
2018-07-22T18:19:36.688Z,19.37
2018-07-22T18:22:06.538Z,19.32
2018-07-22T18:24:36.522Z,19.25
2018-07-22T18:27:05.503Z,19.22
2018-07-22T18:29:35.032Z,19.18
2018-07-22T18:32:04.334Z,19.10
2018-07-22T18:34:33.449Z,19.12
2018-07-22T18:37:02.648Z,19.18
2018-07-22T18:39:31.737Z,19.19
2018-07-22T18:42:01.049Z,19.10
2018-07-22T18:44:30.280Z,19.07
2018-07-22T18:46:59.497Z,19.06
2018-07-22T18:49:28.614Z,18.95
2018-07-22T18:51:57.879Z,18.92
2018-07-22T18:54:27.312Z,18.89
2018-07-22T18:56:57.492Z,18.89
2018-07-22T18:59:26.672Z,18.89
2018-07-22T19:01:56.164Z,18.87
2018-07-22T19:04:25.385Z,18.87
2018-07-22T19:06:54.579Z,18.82
2018-07-22T19:09:23.883Z,18.83
2018-07-22T19:11:53.389Z,18.86
2018-07-22T19:14:22.940Z,18.88
2018-07-22T19:16:52.384Z,18.84
2018-07-22T19:19:22.104Z,18.72
2018-07-22T19:21:51.623Z,18.68
2018-07-22T19:24:20.780Z,18.58
2018-07-22T19:26:49.897Z,18.51
2018-07-22T19:29:19.118Z,18.45
2018-07-22T19:31:48.845Z,18.41
2018-07-22T19:34:18.789Z,18.35
2018-07-22T19:36:49.555Z,18.37
2018-07-22T19:39:18.829Z,18.42
2018-07-22T19:41:48.048Z,18.46
2018-07-22T19:44:17.444Z,18.47
2018-07-22T19:46:46.753Z,18.41
2018-07-22T19:49:16.124Z,18.33
2018-07-22T19:51:45.515Z,18.32
2018-07-22T19:54:14.962Z,18.34
2018-07-22T19:56:44.133Z,18.33
2018-07-22T19:59:13.248Z,18.34
2018-07-22T20:01:43.687Z,18.32
2018-07-22T20:04:14.209Z,18.26
2018-07-22T20:06:44.299Z,18.23
2018-07-22T20:09:14.447Z,18.20
2018-07-22T20:11:44.092Z,18.20
2018-07-22T20:14:13.436Z,18.22
2018-07-22T20:16:42.758Z,18.23
2018-07-22T20:19:12.567Z,18.20
2018-07-22T20:21:41.769Z,18.12
2018-07-22T20:24:11.017Z,18.09
2018-07-22T20:26:40.883Z,18.05
2018-07-22T20:29:10.114Z,18.01
2018-07-22T20:31:39.218Z,18.01
2018-07-22T20:34:08.351Z,18.01
2018-07-22T20:36:37.468Z,17.96
2018-07-22T20:39:10.272Z,17.92
2018-07-22T20:41:40.543Z,17.99
2018-07-22T20:44:09.637Z,18.02
2018-07-22T20:46:38.659Z,18.04
2018-07-22T20:49:07.457Z,17.97
2018-07-22T20:51:36.287Z,18.00
2018-07-22T20:54:05.214Z,17.99
2018-07-22T20:56:34.141Z,17.98
2018-07-22T20:59:03.019Z,17.90
2018-07-22T21:01:31.980Z,17.86
2018-07-22T21:04:00.928Z,17.80
2018-07-22T21:06:30.267Z,17.77
2018-07-22T21:08:59.322Z,17.73
2018-07-22T21:11:38.980Z,17.73
2018-07-22T21:14:07.803Z,17.74
2018-07-22T21:16:36.797Z,17.74
2018-07-22T21:19:06.096Z,17.72
2018-07-22T21:21:35.394Z,17.70
2018-07-22T21:24:04.230Z,17.67
2018-07-22T21:26:32.874Z,17.71
2018-07-22T21:29:01.671Z,17.73
2018-07-22T21:31:30.496Z,17.76
2018-07-22T21:33:59.281Z,17.80
2018-07-22T21:36:28.730Z,17.81
2018-07-22T21:38:57.360Z,17.84
2018-07-22T21:41:26.072Z,17.77
2018-07-22T21:43:55.501Z,17.69
2018-07-22T21:46:24.483Z,17.70
2018-07-22T21:48:53.770Z,17.69
2018-07-22T21:51:22.511Z,17.69
2018-07-22T21:53:51.193Z,17.70
2018-07-22T21:56:20.006Z,17.72
2018-07-22T21:58:48.671Z,17.74
2018-07-22T22:04:32.085Z,17.66
2018-07-22T22:07:00.870Z,17.62
2018-07-22T22:09:29.686Z,17.55
2018-07-22T22:11:58.716Z,17.59
2018-07-22T22:14:27.928Z,17.62
2018-07-22T22:16:57.282Z,17.61
2018-07-22T22:19:26.226Z,17.59
2018-07-22T22:21:55.106Z,17.56
2018-07-22T22:24:23.995Z,17.48
2018-07-22T22:26:54.223Z,17.47
2018-07-22T22:29:23.169Z,17.42
2018-07-22T22:31:52.069Z,17.47
2018-07-22T22:34:20.705Z,17.48
2018-07-22T22:36:49.684Z,17.53
2018-07-22T22:39:19.181Z,17.48
2018-07-22T22:41:48.091Z,17.39
2018-07-22T22:44:16.795Z,17.34
2018-07-22T22:46:45.460Z,17.26
2018-07-22T22:49:14.113Z,17.27
2018-07-22T22:51:42.874Z,17.28
2018-07-22T22:54:11.681Z,17.27
2018-07-22T22:56:40.473Z,17.28
2018-07-22T22:59:16.965Z,17.28
2018-07-22T23:01:46.069Z,17.25
2018-07-22T23:04:15.354Z,17.18
2018-07-22T23:06:44.159Z,17.15
2018-07-22T23:09:14.590Z,17.17
2018-07-22T23:11:43.904Z,17.17
2018-07-22T23:14:12.789Z,17.12
2018-07-22T23:16:41.699Z,17.08
2018-07-22T23:19:10.533Z,17.03
2018-07-22T23:21:39.423Z,17.00
2018-07-22T23:24:08.189Z,16.95
2018-07-22T23:26:37.599Z,16.91
2018-07-22T23:29:06.155Z,16.88
2018-07-22T23:31:35.740Z,16.83
2018-07-22T23:34:04.381Z,16.81
2018-07-22T23:36:33.219Z,16.81
2018-07-22T23:39:02.017Z,16.72
2018-07-22T23:41:30.686Z,16.62
2018-07-22T23:43:59.598Z,16.54
2018-07-22T23:46:29.199Z,16.55
2018-07-22T23:48:57.930Z,16.58
2018-07-22T23:51:26.531Z,16.61
2018-07-22T23:53:55.514Z,16.62
2018-07-22T23:56:24.213Z,16.62
2018-07-22T23:58:52.870Z,16.67
